createdAt,value
2022-09-29T00:00:11.298Z,994.05
2022-09-29T00:01:10.692Z,994.02
2022-09-29T00:02:10.723Z,994.09
2022-09-29T00:03:10.638Z,994.08
2022-09-29T00:04:11.590Z,994.08
2022-09-29T00:05:10.621Z,994.10
2022-09-29T00:06:10.730Z,994.10
2022-09-29T00:07:11.601Z,994.08
2022-09-29T00:08:10.523Z,994.07
2022-09-29T00:09:10.696Z,994.07
2022-09-29T00:10:10.461Z,994.07
2022-09-29T00:11:10.448Z,994.06
2022-09-29T00:12:10.529Z,994.07
2022-09-29T00:13:10.481Z,994.04
2022-09-29T00:14:10.450Z,994.07
2022-09-29T00:15:10.420Z,994.05
2022-09-29T00:16:10.656Z,994.05
2022-09-29T00:17:10.409Z,994.06
2022-09-29T00:18:13.974Z,994.11
2022-09-29T00:19:10.521Z,994.15
2022-09-29T00:20:10.329Z,994.11
2022-09-29T00:21:10.323Z,994.07
2022-09-29T00:22:10.301Z,994.13
2022-09-29T00:23:10.317Z,994.11
2022-09-29T00:24:10.366Z,994.09
2022-09-29T00:25:10.321Z,994.10
2022-09-29T00:26:10.286Z,994.11
2022-09-29T00:27:10.347Z,994.13
2022-09-29T00:28:10.244Z,994.12
2022-09-29T00:29:10.212Z,994.11
2022-09-29T00:30:10.260Z,994.13
2022-09-29T00:31:10.379Z,994.08
2022-09-29T00:32:10.174Z,994.13
2022-09-29T00:33:10.181Z,994.10
2022-09-29T00:34:10.267Z,994.11
2022-09-29T00:35:10.154Z,994.11
2022-09-29T00:36:10.122Z,994.06
2022-09-29T00:37:10.111Z,994.07
2022-09-29T00:38:10.345Z,994.08
2022-09-29T00:39:10.513Z,994.06
2022-09-29T00:40:10.134Z,994.05
2022-09-29T00:41:10.328Z,994.03
2022-09-29T00:42:10.066Z,993.99
2022-09-29T00:43:10.033Z,993.98
2022-09-29T00:44:10.077Z,993.96
2022-09-29T00:45:11.025Z,993.96
2022-09-29T00:46:10.244Z,993.93
2022-09-29T00:47:10.018Z,993.95
2022-09-29T00:48:09.974Z,993.91
2022-09-29T00:49:09.978Z,993.96
2022-09-29T00:50:10.027Z,993.92
2022-09-29T00:51:10.117Z,993.92
2022-09-29T00:52:10.867Z,993.92
2022-09-29T00:53:09.922Z,993.96
2022-09-29T00:54:10.176Z,993.92
2022-09-29T00:55:09.929Z,993.92
2022-09-29T00:56:09.886Z,993.96
2022-09-29T00:57:09.905Z,993.96
2022-09-29T00:58:09.865Z,993.94
2022-09-29T00:59:09.855Z,993.96
2022-09-29T01:00:09.883Z,993.98
2022-09-29T01:01:09.869Z,993.96
2022-09-29T01:02:10.119Z,993.98
2022-09-29T01:03:09.829Z,993.98
2022-09-29T01:04:09.996Z,994.00
2022-09-29T01:05:09.867Z,994.00
2022-09-29T01:06:10.551Z,993.98
2022-09-29T01:07:10.408Z,994.00
2022-09-29T01:08:09.728Z,994.02
2022-09-29T01:09:09.839Z,994.02
2022-09-29T01:10:09.755Z,994.02
2022-09-29T01:11:09.689Z,994.04
2022-09-29T01:12:09.660Z,994.02
2022-09-29T01:13:09.859Z,994.04
2022-09-29T01:14:09.629Z,994.03
2022-09-29T01:15:09.760Z,994.01
2022-09-29T01:16:09.741Z,993.98
2022-09-29T01:17:10.508Z,994.03
2022-09-29T01:18:09.715Z,994.00
2022-09-29T01:19:10.829Z,993.94
2022-09-29T01:20:09.625Z,993.96
2022-09-29T01:21:09.555Z,993.98
2022-09-29T01:22:09.579Z,994.00
2022-09-29T01:23:09.540Z,994.04
2022-09-29T01:24:09.618Z,994.02
2022-09-29T01:25:10.685Z,994.05
2022-09-29T01:26:09.510Z,994.04
2022-09-29T01:27:09.503Z,994.09
2022-09-29T01:28:09.605Z,994.11
2022-09-29T01:29:09.627Z,994.12
2022-09-29T01:30:10.290Z,994.08
2022-09-29T01:31:09.514Z,994.10
2022-09-29T01:32:09.511Z,994.07
2022-09-29T01:33:09.482Z,994.10
2022-09-29T01:34:10.411Z,994.04
2022-09-29T01:35:09.369Z,994.05
2022-09-29T01:36:09.373Z,994.05
2022-09-29T01:37:09.358Z,994.11
2022-09-29T01:38:09.395Z,994.08
2022-09-29T01:39:10.448Z,994.12
2022-09-29T01:40:09.301Z,994.08
2022-09-29T01:41:09.301Z,994.05
2022-09-29T01:42:09.336Z,994.07
2022-09-29T01:43:09.271Z,994.05
2022-09-29T01:44:09.378Z,994.07
2022-09-29T01:45:09.273Z,994.07
2022-09-29T01:46:09.458Z,994.07
2022-09-29T01:47:09.294Z,994.14
2022-09-29T01:48:09.359Z,994.12
2022-09-29T01:49:09.283Z,994.11
2022-09-29T01:50:09.324Z,994.14
2022-09-29T01:51:09.295Z,994.11
2022-09-29T01:52:09.149Z,994.12
2022-09-29T01:53:09.155Z,994.13
2022-09-29T01:54:10.032Z,994.11
2022-09-29T01:55:09.153Z,994.05
2022-09-29T01:56:09.194Z,994.10
2022-09-29T01:57:10.254Z,994.08
2022-09-29T01:58:09.095Z,994.06
2022-09-29T01:59:09.206Z,994.08
2022-09-29T02:00:09.070Z,994.06
2022-09-29T02:01:09.159Z,994.06
2022-09-29T02:02:09.108Z,994.03
2022-09-29T02:03:09.047Z,994.04
2022-09-29T02:04:10.110Z,994.07
2022-09-29T02:05:09.010Z,994.08
2022-09-29T02:06:09.041Z,994.04
2022-09-29T02:07:08.997Z,994.11
2022-09-29T02:08:09.026Z,994.10
2022-09-29T02:09:10.139Z,994.12
2022-09-29T02:10:10.036Z,994.10
2022-09-29T02:11:08.912Z,994.12
2022-09-29T02:12:08.912Z,994.12
2022-09-29T02:13:08.921Z,994.12
2022-09-29T02:14:08.879Z,994.13
2022-09-29T02:15:08.856Z,994.12
2022-09-29T02:16:08.908Z,994.15
2022-09-29T02:17:08.894Z,994.07
2022-09-29T02:18:08.853Z,994.13
2022-09-29T02:19:08.867Z,994.14
2022-09-29T02:20:09.557Z,994.13
2022-09-29T02:21:08.863Z,994.16
2022-09-29T02:22:08.957Z,994.14
2022-09-29T02:23:08.926Z,994.17
2022-09-29T02:24:08.776Z,994.23
2022-09-29T02:25:08.736Z,994.22
2022-09-29T02:26:08.763Z,994.18
2022-09-29T02:27:08.765Z,994.17
2022-09-29T02:28:08.775Z,994.16
2022-09-29T02:29:08.695Z,994.21
2022-09-29T02:30:08.721Z,994.18
2022-09-29T02:31:08.683Z,994.19
2022-09-29T02:32:08.685Z,994.17
2022-09-29T02:33:09.877Z,994.19
2022-09-29T02:34:08.637Z,994.17
2022-09-29T02:35:08.737Z,994.22
2022-09-29T02:36:08.625Z,994.19
2022-09-29T02:37:08.567Z,994.25
2022-09-29T02:38:08.569Z,994.25
2022-09-29T02:39:08.756Z,994.19
2022-09-29T02:40:08.575Z,994.26
2022-09-29T02:41:08.537Z,994.21
2022-09-29T02:42:08.549Z,994.25
2022-09-29T02:43:08.496Z,994.19
2022-09-29T02:44:08.687Z,994.19
2022-09-29T02:45:08.489Z,994.23
2022-09-29T02:46:09.731Z,994.25
2022-09-29T02:47:09.560Z,994.28
2022-09-29T02:48:08.514Z,994.26
2022-09-29T02:49:08.504Z,994.27
2022-09-29T02:50:08.437Z,994.24
2022-09-29T02:51:08.428Z,994.25
2022-09-29T02:52:08.408Z,994.25
2022-09-29T02:53:08.455Z,994.26
2022-09-29T02:54:08.567Z,994.26
2022-09-29T02:55:08.344Z,994.31
2022-09-29T02:56:08.389Z,994.31
2022-09-29T02:57:08.321Z,994.32
2022-09-29T02:58:08.509Z,994.30
2022-09-29T02:59:08.335Z,994.31
2022-09-29T03:00:09.279Z,994.28
2022-09-29T03:01:08.457Z,994.25
2022-09-29T03:02:08.348Z,994.23
2022-09-29T03:03:08.327Z,994.31
2022-09-29T03:04:08.404Z,994.34
2022-09-29T03:05:08.224Z,994.29
2022-09-29T03:06:08.232Z,994.28
2022-09-29T03:07:08.221Z,994.29
2022-09-29T03:08:08.228Z,994.29
2022-09-29T03:09:08.401Z,994.33
2022-09-29T03:10:08.213Z,994.35
2022-09-29T03:11:08.173Z,994.30
2022-09-29T03:12:08.154Z,994.33
2022-09-29T03:13:08.162Z,994.37
2022-09-29T03:14:08.173Z,994.35
2022-09-29T03:15:08.131Z,994.34
2022-09-29T03:16:08.149Z,994.35
2022-09-29T03:17:08.065Z,994.35
2022-09-29T03:18:10.105Z,994.33
2022-09-29T03:19:08.034Z,994.32
2022-09-29T03:20:08.042Z,994.37
2022-09-29T03:21:08.041Z,994.34
2022-09-29T03:22:08.027Z,994.39
2022-09-29T03:23:08.025Z,994.40
2022-09-29T03:24:09.071Z,994.43
2022-09-29T03:25:08.047Z,994.43
2022-09-29T03:26:08.082Z,994.45
2022-09-29T03:27:07.945Z,994.44
2022-09-29T03:28:07.952Z,994.47
2022-09-29T03:29:07.949Z,994.46
2022-09-29T03:30:07.900Z,994.49
2022-09-29T03:31:08.015Z,994.45
2022-09-29T03:32:07.923Z,994.47
2022-09-29T03:33:07.866Z,994.49
2022-09-29T03:34:07.844Z,994.45
2022-09-29T03:35:07.898Z,994.48
2022-09-29T03:36:07.906Z,994.52
2022-09-29T03:37:07.803Z,994.49
2022-09-29T03:38:08.394Z,994.51
2022-09-29T03:39:08.659Z,994.54
2022-09-29T03:40:07.814Z,994.52
2022-09-29T03:41:07.808Z,994.55
2022-09-29T03:42:07.752Z,994.53
2022-09-29T03:43:07.734Z,994.52
2022-09-29T03:44:07.720Z,994.53
2022-09-29T03:45:07.706Z,994.52
2022-09-29T03:46:07.849Z,994.53
2022-09-29T03:47:07.678Z,994.53
2022-09-29T03:48:07.753Z,994.48
2022-09-29T03:49:08.715Z,994.48
2022-09-29T03:50:07.683Z,994.51
2022-09-29T03:51:07.920Z,994.50
2022-09-29T03:52:07.706Z,994.52
2022-09-29T03:53:07.623Z,994.52
2022-09-29T03:54:07.667Z,994.55
2022-09-29T03:55:07.574Z,994.56
2022-09-29T03:56:07.581Z,994.54
2022-09-29T03:57:07.556Z,994.54
2022-09-29T03:58:07.533Z,994.53
2022-09-29T03:59:07.573Z,994.53
2022-09-29T04:00:07.545Z,994.54
2022-09-29T04:01:07.634Z,994.52
2022-09-29T04:02:08.572Z,994.50
2022-09-29T04:03:07.537Z,994.52
2022-09-29T04:04:07.532Z,994.53
2022-09-29T04:05:07.558Z,994.52
2022-09-29T04:06:07.433Z,994.53
2022-09-29T04:07:07.453Z,994.53
2022-09-29T04:08:07.401Z,994.53
2022-09-29T04:09:07.464Z,994.58
2022-09-29T04:10:07.399Z,994.52
2022-09-29T04:11:07.428Z,994.53
2022-09-29T04:12:07.369Z,994.54
2022-09-29T04:13:07.380Z,994.54
2022-09-29T04:14:07.426Z,994.57
2022-09-29T04:15:07.342Z,994.61
2022-09-29T04:16:07.516Z,994.60
2022-09-29T04:17:07.309Z,994.61
2022-09-29T04:18:07.358Z,994.66
2022-09-29T04:19:07.259Z,994.61
2022-09-29T04:20:07.256Z,994.68
2022-09-29T04:21:07.316Z,994.68
2022-09-29T04:22:07.256Z,994.68
2022-09-29T04:23:07.230Z,994.69
2022-09-29T04:24:07.205Z,994.68
2022-09-29T04:25:07.189Z,994.65
2022-09-29T04:26:07.216Z,994.69
2022-09-29T04:27:08.173Z,994.69
2022-09-29T04:28:07.174Z,994.70
2022-09-29T04:29:07.589Z,994.70
2022-09-29T04:30:07.129Z,994.69
2022-09-29T04:31:07.264Z,994.71
2022-09-29T04:32:07.158Z,994.77
2022-09-29T04:33:07.179Z,994.78
2022-09-29T04:34:07.138Z,994.76
2022-09-29T04:35:07.067Z,994.80
2022-09-29T04:36:07.049Z,994.80
2022-09-29T04:37:07.036Z,994.82
2022-09-29T04:38:07.027Z,994.79
2022-09-29T04:39:07.129Z,994.81
2022-09-29T04:40:06.999Z,994.85
2022-09-29T04:41:07.034Z,994.89
2022-09-29T04:42:08.240Z,994.84
2022-09-29T04:43:07.015Z,994.84
2022-09-29T04:44:07.028Z,994.86
2022-09-29T04:45:06.974Z,994.89
2022-09-29T04:46:07.016Z,994.91
2022-09-29T04:47:06.980Z,994.86
2022-09-29T04:48:07.649Z,994.89
2022-09-29T04:49:07.134Z,994.92
2022-09-29T04:50:06.923Z,994.92
2022-09-29T04:51:06.858Z,994.90
2022-09-29T04:52:06.898Z,994.92
2022-09-29T04:53:07.344Z,994.97
2022-09-29T04:54:06.863Z,994.91
2022-09-29T04:55:07.713Z,994.92
2022-09-29T04:56:06.850Z,994.88
2022-09-29T04:57:06.809Z,994.93
2022-09-29T04:58:06.774Z,994.91
2022-09-29T04:59:06.761Z,994.96
2022-09-29T05:00:06.834Z,994.87
2022-09-29T05:01:06.820Z,994.90
2022-09-29T05:02:06.754Z,994.92
2022-09-29T05:03:06.752Z,994.90
2022-09-29T05:04:06.765Z,994.91
2022-09-29T05:05:06.715Z,994.89
2022-09-29T05:06:06.692Z,994.89
2022-09-29T05:07:06.661Z,994.94
2022-09-29T05:08:07.792Z,994.93
2022-09-29T05:09:06.661Z,994.94
2022-09-29T05:10:06.683Z,994.96
2022-09-29T05:11:06.621Z,994.96
2022-09-29T05:12:06.665Z,994.97
2022-09-29T05:13:06.624Z,994.94
2022-09-29T05:14:06.570Z,994.96
2022-09-29T05:15:06.560Z,994.94
2022-09-29T05:16:06.625Z,994.98
2022-09-29T05:17:06.633Z,994.97
2022-09-29T05:18:06.520Z,994.97
2022-09-29T05:19:06.504Z,994.94
2022-09-29T05:20:07.463Z,994.97
2022-09-29T05:22:07.512Z,994.96
2022-09-29T05:23:06.489Z,994.96
2022-09-29T05:24:06.522Z,994.97
2022-09-29T05:25:06.422Z,994.98
2022-09-29T05:26:06.419Z,994.97
2022-09-29T05:27:06.444Z,994.98
2022-09-29T05:28:06.446Z,995.01
2022-09-29T05:29:06.394Z,995.02
2022-09-29T05:30:06.371Z,995.02
2022-09-29T05:31:06.418Z,994.99
2022-09-29T05:32:06.363Z,994.96
2022-09-29T05:33:06.373Z,994.97
2022-09-29T05:34:06.443Z,994.98
2022-09-29T05:35:06.296Z,994.97
2022-09-29T05:36:06.387Z,995.02
2022-09-29T05:37:06.289Z,995.05
2022-09-29T05:38:06.366Z,994.98
2022-09-29T05:39:06.278Z,995.03
2022-09-29T05:40:06.284Z,995.02
2022-09-29T05:41:06.225Z,995.04
2022-09-29T05:42:06.235Z,995.02
2022-09-29T05:43:06.843Z,995.01
2022-09-29T05:44:06.272Z,995.02
2022-09-29T05:45:06.184Z,995.01
2022-09-29T05:46:06.432Z,995.03
2022-09-29T05:47:06.180Z,995.03
2022-09-29T05:48:06.157Z,995.01
2022-09-29T05:49:06.125Z,995.05
2022-09-29T05:50:06.108Z,995.03
2022-09-29T05:51:06.105Z,995.06
2022-09-29T05:52:06.148Z,995.03
2022-09-29T05:53:06.086Z,995.05
2022-09-29T05:54:06.076Z,995.08
2022-09-29T05:55:06.047Z,995.10
2022-09-29T05:56:06.280Z,995.12
2022-09-29T05:57:06.068Z,995.09
2022-09-29T05:58:06.067Z,995.11
2022-09-29T05:59:06.029Z,995.13
2022-09-29T06:00:06.037Z,995.09
2022-09-29T06:01:06.136Z,995.15
2022-09-29T06:02:06.044Z,995.14
2022-09-29T06:03:05.971Z,995.11
2022-09-29T06:04:05.953Z,995.14
2022-09-29T06:05:05.915Z,995.10
2022-09-29T06:06:05.925Z,995.10
2022-09-29T06:07:06.416Z,995.11
2022-09-29T06:08:05.945Z,995.10
2022-09-29T06:09:05.896Z,995.13
2022-09-29T06:10:05.915Z,995.13
2022-09-29T06:11:05.955Z,995.15
2022-09-29T06:12:05.846Z,995.18
2022-09-29T06:13:05.860Z,995.18
2022-09-29T06:14:05.847Z,995.17
2022-09-29T06:15:05.833Z,995.21
2022-09-29T06:16:05.826Z,995.19
2022-09-29T06:17:05.755Z,995.18
2022-09-29T06:18:05.788Z,995.19
2022-09-29T06:19:05.755Z,995.16
2022-09-29T06:20:05.770Z,995.21
2022-09-29T06:21:05.708Z,995.21
2022-09-29T06:22:05.701Z,995.16
2022-09-29T06:23:05.687Z,995.18
2022-09-29T06:24:06.640Z,995.20
2022-09-29T06:25:05.665Z,995.20
2022-09-29T06:26:05.677Z,995.19
2022-09-29T06:27:05.630Z,995.18
2022-09-29T06:28:05.702Z,995.18
2022-09-29T06:29:05.655Z,995.16
2022-09-29T06:30:05.663Z,995.21
2022-09-29T06:31:05.610Z,995.20
2022-09-29T06:32:05.660Z,995.17
2022-09-29T06:33:05.624Z,995.18
2022-09-29T06:34:05.581Z,995.17
2022-09-29T06:35:05.530Z,995.23
2022-09-29T06:36:05.522Z,995.22
2022-09-29T06:37:05.550Z,995.23
2022-09-29T06:38:05.649Z,995.23
2022-09-29T06:39:05.509Z,995.22
2022-09-29T06:40:10.107Z,995.18
2022-09-29T06:41:06.520Z,995.23
2022-09-29T06:42:05.502Z,995.24
2022-09-29T06:43:05.483Z,995.27
2022-09-29T06:44:05.420Z,995.24
2022-09-29T06:45:05.431Z,995.28
2022-09-29T06:46:05.480Z,995.28
2022-09-29T06:47:06.481Z,995.27
2022-09-29T06:48:05.461Z,995.30
2022-09-29T06:49:06.290Z,995.29
2022-09-29T06:50:12.589Z,995.25
2022-09-29T06:51:10.190Z,995.34
2022-09-29T06:52:17.146Z,995.27
2022-09-29T06:53:06.289Z,995.29
2022-09-29T06:54:11.285Z,995.31
2022-09-29T06:55:06.351Z,995.32
2022-09-29T06:56:05.282Z,995.30
2022-09-29T06:57:05.339Z,995.31
2022-09-29T06:58:05.303Z,995.33
2022-09-29T06:59:05.292Z,995.35
2022-09-29T07:01:05.310Z,995.31
2022-09-29T07:02:06.120Z,995.38
2022-09-29T07:03:05.193Z,995.34
2022-09-29T07:04:05.282Z,995.35
2022-09-29T07:05:05.153Z,995.38
2022-09-29T07:06:20.876Z,995.37
2022-09-29T07:07:06.115Z,995.37
2022-09-29T07:08:05.143Z,995.38
2022-09-29T07:09:05.156Z,995.39
2022-09-29T07:10:05.120Z,995.39
2022-09-29T07:11:05.091Z,995.38
2022-09-29T07:12:06.129Z,995.39
2022-09-29T07:13:05.224Z,995.42
2022-09-29T07:14:05.970Z,995.43
2022-09-29T07:15:05.109Z,995.36
2022-09-29T07:16:05.120Z,995.38
2022-09-29T07:17:05.014Z,995.38
2022-09-29T07:18:05.015Z,995.43
2022-09-29T07:19:04.964Z,995.42
2022-09-29T07:20:04.954Z,995.42
2022-09-29T07:21:04.938Z,995.41
2022-09-29T07:22:04.977Z,995.43
2022-09-29T07:23:04.928Z,995.41
2022-09-29T07:24:04.986Z,995.45
2022-09-29T07:25:04.891Z,995.42
2022-09-29T07:26:04.875Z,995.48
2022-09-29T07:27:04.872Z,995.45
2022-09-29T07:28:04.873Z,995.46
2022-09-29T07:29:04.980Z,995.46
2022-09-29T07:30:04.817Z,995.48
2022-09-29T07:31:13.311Z,995.49
2022-09-29T07:32:06.707Z,995.51
2022-09-29T07:33:04.845Z,995.52
2022-09-29T07:34:04.790Z,995.52
2022-09-29T07:35:05.312Z,995.56
2022-09-29T07:36:04.770Z,995.58
2022-09-29T07:37:04.796Z,995.61
2022-09-29T07:38:04.731Z,995.62
2022-09-29T07:39:04.726Z,995.61
2022-09-29T07:40:04.725Z,995.64
2022-09-29T07:41:06.054Z,995.65
2022-09-29T07:42:09.014Z,995.66
2022-09-29T07:43:04.659Z,995.63
2022-09-29T07:44:04.635Z,995.63
2022-09-29T07:45:04.692Z,995.64
2022-09-29T07:46:04.739Z,995.66
2022-09-29T07:47:04.977Z,995.67
2022-09-29T07:48:04.701Z,995.70
2022-09-29T07:49:04.622Z,995.73
2022-09-29T07:50:04.623Z,995.68
2022-09-29T07:51:04.591Z,995.69
2022-09-29T07:52:04.545Z,995.71
2022-09-29T07:53:05.697Z,995.72
2022-09-29T07:54:04.712Z,995.75
2022-09-29T07:55:04.591Z,995.77
2022-09-29T07:56:04.522Z,995.77
2022-09-29T07:57:04.509Z,995.81
2022-09-29T07:58:04.503Z,995.74
2022-09-29T07:59:04.541Z,995.79
2022-09-29T08:00:04.494Z,995.81
2022-09-29T08:01:04.487Z,995.79
2022-09-29T08:02:04.552Z,995.83
2022-09-29T08:03:04.414Z,995.86
2022-09-29T08:04:04.495Z,995.83
2022-09-29T08:05:07.487Z,995.85
2022-09-29T08:06:04.372Z,995.85
2022-09-29T08:07:04.342Z,995.85
2022-09-29T08:08:05.692Z,995.86
2022-09-29T08:09:05.410Z,995.84
2022-09-29T08:10:13.773Z,995.88
2022-09-29T08:11:05.285Z,995.85
2022-09-29T08:12:08.200Z,995.84
2022-09-29T08:13:04.279Z,995.83
2022-09-29T08:14:04.254Z,995.85
2022-09-29T08:15:04.231Z,995.86
2022-09-29T08:16:04.227Z,995.89
2022-09-29T08:17:04.331Z,995.91
2022-09-29T08:18:04.217Z,995.86
2022-09-29T08:19:05.675Z,995.91
2022-09-29T08:20:04.355Z,995.90
2022-09-29T08:21:04.195Z,995.90
2022-09-29T08:22:04.166Z,995.92
2022-09-29T08:23:04.124Z,995.91
2022-09-29T08:24:04.193Z,995.95
2022-09-29T08:25:04.106Z,995.90
2022-09-29T08:26:04.128Z,995.95
2022-09-29T08:27:14.214Z,995.99
2022-09-29T08:28:05.055Z,995.98
2022-09-29T08:29:08.198Z,995.96
2022-09-29T08:30:04.056Z,996.03
2022-09-29T08:31:05.194Z,996.00
2022-09-29T08:32:04.151Z,996.02
2022-09-29T08:33:04.031Z,996.02
2022-09-29T08:34:04.037Z,996.06
2022-09-29T08:35:03.968Z,996.08
2022-09-29T08:36:03.973Z,996.09
2022-09-29T08:37:03.970Z,996.07
2022-09-29T08:38:03.958Z,996.03
2022-09-29T08:39:03.949Z,996.05
2022-09-29T08:40:03.912Z,996.06
2022-09-29T08:41:03.971Z,996.09
2022-09-29T08:42:03.910Z,996.12
2022-09-29T08:43:04.026Z,996.08
2022-09-29T08:44:03.876Z,996.12
2022-09-29T08:45:14.551Z,996.13
2022-09-29T08:46:04.888Z,996.17
2022-09-29T08:47:10.531Z,996.16
2022-09-29T08:48:14.657Z,996.15
2022-09-29T08:49:04.927Z,996.15
2022-09-29T08:50:03.810Z,996.18
2022-09-29T08:51:03.800Z,996.19
2022-09-29T08:52:13.239Z,996.23
2022-09-29T08:53:04.828Z,996.24
2022-09-29T08:54:04.738Z,996.21
2022-09-29T08:55:16.527Z,996.26
2022-09-29T08:56:04.821Z,996.28
2022-09-29T08:57:04.749Z,996.27
2022-09-29T08:58:03.752Z,996.30
2022-09-29T08:59:03.943Z,996.33
2022-09-29T09:00:03.684Z,996.32
2022-09-29T09:01:03.741Z,996.37
2022-09-29T09:02:03.683Z,996.39
2022-09-29T09:03:03.604Z,996.32
2022-09-29T09:04:03.590Z,996.36
2022-09-29T09:05:03.570Z,996.36
2022-09-29T09:06:03.674Z,996.43
2022-09-29T09:07:03.711Z,996.35
2022-09-29T09:08:04.301Z,996.37
2022-09-29T09:09:03.602Z,996.42
2022-09-29T09:10:03.534Z,996.42
2022-09-29T09:11:03.601Z,996.35
2022-09-29T09:12:03.610Z,996.39
2022-09-29T09:13:03.543Z,996.39
2022-09-29T09:14:03.473Z,996.36
2022-09-29T09:15:03.443Z,996.41
2022-09-29T09:16:03.458Z,996.39
2022-09-29T09:17:03.602Z,996.41
2022-09-29T09:18:03.413Z,996.47
2022-09-29T09:19:05.113Z,996.46
2022-09-29T09:20:03.404Z,996.45
2022-09-29T09:21:03.438Z,996.43
2022-09-29T09:22:03.366Z,996.43
2022-09-29T09:23:03.428Z,996.45
2022-09-29T09:24:03.384Z,996.43
2022-09-29T09:25:03.445Z,996.41
2022-09-29T09:26:03.339Z,996.44
2022-09-29T09:27:03.307Z,996.43
2022-09-29T09:28:03.296Z,996.42
2022-09-29T09:29:03.277Z,996.48
2022-09-29T09:30:03.269Z,996.48
2022-09-29T09:31:03.339Z,996.50
2022-09-29T09:32:03.300Z,996.52
2022-09-29T09:33:03.212Z,996.53
2022-09-29T09:34:15.889Z,996.57
2022-09-29T09:35:20.085Z,996.55
2022-09-29T09:36:04.161Z,996.59
2022-09-29T09:37:08.329Z,996.57
2022-09-29T09:38:04.170Z,996.59
2022-09-29T09:39:03.141Z,996.57
2022-09-29T09:40:03.191Z,996.58
2022-09-29T09:41:03.128Z,996.58
2022-09-29T09:42:03.196Z,996.57
2022-09-29T09:43:03.224Z,996.55
2022-09-29T09:44:03.088Z,996.55
2022-09-29T09:45:03.134Z,996.54
2022-09-29T09:46:03.170Z,996.56
2022-09-29T09:47:04.056Z,996.56
2022-09-29T09:48:03.024Z,996.57
2022-09-29T09:49:03.024Z,996.57
2022-09-29T09:50:03.021Z,996.58
2022-09-29T09:51:03.005Z,996.57
2022-09-29T09:52:03.052Z,996.61
2022-09-29T09:53:02.957Z,996.60
2022-09-29T09:54:02.970Z,996.61
2022-09-29T09:55:02.987Z,996.64
2022-09-29T09:56:02.924Z,996.63
2022-09-29T09:57:02.917Z,996.60
2022-09-29T09:58:02.888Z,996.58
2022-09-29T09:59:03.002Z,996.61
2022-09-29T10:00:03.075Z,996.61
2022-09-29T10:01:02.862Z,996.64
2022-09-29T10:02:02.932Z,996.67
2022-09-29T10:03:02.805Z,996.62
2022-09-29T10:04:02.854Z,996.61
2022-09-29T10:05:07.364Z,996.66
2022-09-29T10:06:03.766Z,996.66
2022-09-29T10:07:02.769Z,996.66
2022-09-29T10:08:02.768Z,996.69
2022-09-29T10:09:02.778Z,996.69
2022-09-29T10:10:02.797Z,996.69
2022-09-29T10:11:03.790Z,996.72
2022-09-29T10:12:02.715Z,996.71
2022-09-29T10:13:02.752Z,996.71
2022-09-29T10:14:02.699Z,996.69
2022-09-29T10:15:02.677Z,996.69
2022-09-29T10:16:02.709Z,996.68
2022-09-29T10:17:02.799Z,996.67
2022-09-29T10:18:02.617Z,996.69
2022-09-29T10:19:02.632Z,996.67
2022-09-29T10:20:02.682Z,996.66
2022-09-29T10:21:02.570Z,996.66
2022-09-29T10:22:02.582Z,996.65
2022-09-29T10:23:02.549Z,996.67
2022-09-29T10:24:02.642Z,996.66
2022-09-29T10:25:02.769Z,996.63
2022-09-29T10:26:03.401Z,996.63
2022-09-29T10:27:02.541Z,996.62
2022-09-29T10:28:02.529Z,996.67
2022-09-29T10:29:02.500Z,996.66
2022-09-29T10:30:02.493Z,996.60
2022-09-29T10:31:02.586Z,996.66
2022-09-29T10:32:02.654Z,996.63
2022-09-29T10:33:02.415Z,996.65
2022-09-29T10:34:02.411Z,996.62
2022-09-29T10:35:02.382Z,996.62
2022-09-29T10:36:02.526Z,996.62
2022-09-29T10:37:02.377Z,996.63
2022-09-29T10:38:02.408Z,996.59
2022-09-29T10:39:03.854Z,996.68
2022-09-29T10:40:02.430Z,996.69
2022-09-29T10:41:02.336Z,996.72
2022-09-29T10:42:02.317Z,996.75
2022-09-29T10:43:02.353Z,996.71
2022-09-29T10:44:02.259Z,996.67
2022-09-29T10:45:02.355Z,996.78
2022-09-29T10:46:02.527Z,996.73
2022-09-29T10:47:02.279Z,996.71
2022-09-29T10:48:02.208Z,996.71
2022-09-29T10:49:03.223Z,996.70
2022-09-29T10:50:02.194Z,996.71
2022-09-29T10:51:02.236Z,996.72
2022-09-29T10:52:02.177Z,996.73
2022-09-29T10:53:02.177Z,996.68
2022-09-29T10:54:02.136Z,996.71
2022-09-29T10:55:02.218Z,996.69
2022-09-29T10:56:02.131Z,996.75
2022-09-29T10:57:02.123Z,996.71
2022-09-29T10:58:02.110Z,996.73
2022-09-29T10:59:05.679Z,996.77
2022-09-29T11:00:02.108Z,996.74
2022-09-29T11:01:02.176Z,996.76
2022-09-29T11:02:02.196Z,996.78
2022-09-29T11:03:02.023Z,996.76
2022-09-29T11:04:02.673Z,996.81
2022-09-29T11:05:02.011Z,996.80
2022-09-29T11:06:02.048Z,996.83
2022-09-29T11:07:02.184Z,996.83
2022-09-29T11:08:01.943Z,996.86
2022-09-29T11:09:02.147Z,996.81
2022-09-29T11:10:01.988Z,996.86
2022-09-29T11:11:01.934Z,996.84
2022-09-29T11:12:05.159Z,996.86
2022-09-29T11:13:03.025Z,996.88
2022-09-29T11:14:01.869Z,996.88
2022-09-29T11:15:01.907Z,996.88
2022-09-29T11:16:01.941Z,996.92
2022-09-29T11:17:01.922Z,996.88
2022-09-29T11:18:01.903Z,996.90
2022-09-29T11:19:01.825Z,996.92
2022-09-29T11:20:01.993Z,996.96
2022-09-29T11:21:01.785Z,996.98
2022-09-29T11:22:01.767Z,996.95
2022-09-29T11:23:01.908Z,996.92
2022-09-29T11:24:02.700Z,996.95
2022-09-29T11:25:02.068Z,996.91
2022-09-29T11:26:01.752Z,996.91
2022-09-29T11:27:01.745Z,996.89
2022-09-29T11:28:01.728Z,996.89
2022-09-29T11:29:01.718Z,996.89
2022-09-29T11:30:01.659Z,996.90
2022-09-29T11:31:01.703Z,996.90
2022-09-29T11:32:01.637Z,996.96
2022-09-29T11:33:01.637Z,996.98
2022-09-29T11:34:01.636Z,996.98
2022-09-29T11:35:02.386Z,997.00
2022-09-29T11:36:01.641Z,997.03
2022-09-29T11:37:01.595Z,997.00
2022-09-29T11:38:01.608Z,996.97
2022-09-29T11:39:01.621Z,997.00
2022-09-29T11:40:01.584Z,996.94
2022-09-29T11:41:01.524Z,996.98
2022-09-29T11:42:01.580Z,997.00
2022-09-29T11:43:01.503Z,996.99
2022-09-29T11:44:01.492Z,997.02
2022-09-29T11:45:01.475Z,997.00
2022-09-29T11:46:01.480Z,997.01
2022-09-29T11:47:01.438Z,997.01
2022-09-29T11:48:01.471Z,997.00
2022-09-29T11:49:01.703Z,996.99
2022-09-29T11:50:01.785Z,996.94
2022-09-29T11:51:01.382Z,997.05
2022-09-29T11:52:01.364Z,996.97
2022-09-29T11:53:02.197Z,997.04
2022-09-29T11:54:05.238Z,997.01
2022-09-29T11:55:02.376Z,997.02
2022-09-29T11:56:01.312Z,997.06
2022-09-29T11:57:01.403Z,997.00
2022-09-29T11:58:01.291Z,997.04
2022-09-29T11:59:01.308Z,997.04
2022-09-29T12:00:01.304Z,997.09
2022-09-29T12:01:01.515Z,997.03
2022-09-29T12:02:01.282Z,997.00
2022-09-29T12:03:01.302Z,997.06
2022-09-29T12:04:01.277Z,997.01
2022-09-29T12:05:02.280Z,997.03
2022-09-29T12:06:01.328Z,997.01
2022-09-29T12:07:01.307Z,997.04
2022-09-29T12:08:01.196Z,997.02
2022-09-29T12:09:01.217Z,996.99
2022-09-29T12:10:01.228Z,997.03
2022-09-29T12:11:13.076Z,997.03
2022-09-29T12:13:02.119Z,997.06
2022-09-29T12:14:01.084Z,997.06
2022-09-29T12:15:01.094Z,997.01
2022-09-29T12:16:01.049Z,997.05
2022-09-29T12:17:01.074Z,997.03
2022-09-29T12:18:01.228Z,997.12
2022-09-29T12:19:01.064Z,997.09
2022-09-29T12:20:01.023Z,997.06
2022-09-29T12:21:02.124Z,997.10
2022-09-29T12:22:01.300Z,997.12
2022-09-29T12:23:00.962Z,997.07
2022-09-29T12:24:00.960Z,997.05
2022-09-29T12:25:00.974Z,997.02
2022-09-29T12:26:01.005Z,997.06
2022-09-29T12:27:00.947Z,997.05
2022-09-29T12:28:00.904Z,997.07
2022-09-29T12:29:00.893Z,997.07
2022-09-29T12:30:00.873Z,997.07
2022-09-29T12:31:00.950Z,997.11